Time;durP1;ratioP1;P1;durP2;ratioP2;P2;SDS_P1;SDS_P2;PMS_P1;PMS_P2;Temp;Humidity;BMP_temperature;BMP_pressure;BME280_temperature;BME280_humidity;BME280_pressure;Samples;Min_cycle;Max_cycle;Signal;HPM_P1;HPM_P2
2022/03/15 00:01:23;;;;;;;2.20;2.00;;;2.60;99.90;;;;;;4974294;28;20207;-76
2022/03/15 00:03:49;;;;;;;4.33;2.60;;;2.60;99.90;;;;;;4990626;28;20241;-76
2022/03/15 00:06:15;;;;;;;2.70;2.00;;;2.60;99.90;;;;;;4974393;28;20684;-76
2022/03/15 00:08:41;;;;;;;2.50;2.30;;;2.60;99.90;;;;;;4974493;28;20218;-76
2022/03/15 00:11:07;;;;;;;2.80;2.30;;;2.60;99.90;;;;;;4974374;28;20204;-76
2022/03/15 00:13:37;;;;;;;3.10;2.20;;;2.40;99.90;;;;;;4974259;28;20185;-76
2022/03/15 00:16:04;;;;;;;3.10;2.10;;;2.40;99.90;;;;;;4974115;28;20232;-76
2022/03/15 00:18:30;;;;;;;3.80;2.10;;;2.30;99.90;;;;;;4975394;28;20183;-76
2022/03/15 00:20:57;;;;;;;3.93;2.13;;;2.30;99.90;;;;;;4973784;28;20209;-76
2022/03/15 00:23:24;;;;;;;2.47;2.10;;;2.30;99.90;;;;;;4974076;28;20264;-76
2022/03/15 00:25:50;;;;;;;2.83;2.30;;;2.30;99.90;;;;;;4974916;28;20220;-76
2022/03/15 00:28:16;;;;;;;2.13;1.93;;;2.20;99.90;;;;;;4973545;28;20211;-76
2022/03/15 00:30:42;;;;;;;2.77;2.20;;;2.20;99.90;;;;;;4989978;28;20224;-76
2022/03/15 00:33:08;;;;;;;3.53;2.07;;;2.20;99.90;;;;;;4974027;28;20205;-76
2022/03/15 00:35:35;;;;;;;2.80;2.00;;;2.20;99.90;;;;;;4973776;28;20183;-76
2022/03/15 00:38:00;;;;;;;2.30;2.10;;;2.30;99.90;;;;;;4973754;28;20185;-76
2022/03/15 00:40:26;;;;;;;2.60;2.03;;;2.30;99.90;;;;;;4973652;28;20209;-76
2022/03/15 00:42:52;;;;;;;3.60;2.03;;;2.30;99.90;;;;;;4973430;28;20189;-76
2022/03/15 00:45:24;;;;;;;2.97;2.50;;;2.20;99.90;;;;;;4973609;28;20189;-76
2022/03/15 00:47:54;;;;;;;3.00;2.10;;;2.30;99.90;;;;;;4973272;28;20233;-76
2022/03/15 00:50:21;;;;;;;2.20;1.67;;;2.40;99.90;;;;;;4973470;28;20175;-76
2022/03/15 00:52:47;;;;;;;2.43;2.03;;;2.30;99.90;;;;;;4973215;28;20169;-76
2022/03/15 00:55:12;;;;;;;3.20;2.20;;;2.30;99.90;;;;;;4973570;28;20230;-76
2022/03/15 00:57:38;;;;;;;2.20;2.00;;;2.30;99.90;;;;;;4973471;28;20185;-76
2022/03/15 01:00:06;;;;;;;2.33;2.13;;;2.30;99.90;;;;;;4973584;28;20789;-76
2022/03/15 01:02:31;;;;;;;2.83;2.03;;;2.30;99.90;;;;;;4972907;28;20182;-76
2022/03/15 01:04:57;;;;;;;3.10;2.10;;;2.30;99.90;;;;;;4989627;28;20178;-76
2022/03/15 01:07:22;;;;;;;2.90;2.20;;;2.30;99.90;;;;;;4973417;28;20177;-76
2022/03/15 01:09:48;;;;;;;2.37;1.90;;;2.30;99.90;;;;;;4973151;28;20182;-76
2022/03/15 01:12:15;;;;;;;3.53;1.90;;;2.40;99.90;;;;;;4973057;28;20199;-76
2022/03/15 01:14:40;;;;;;;3.20;2.10;;;2.40;99.90;;;;;;4989205;28;20167;-76
2022/03/15 01:17:06;;;;;;;3.00;2.10;;;2.30;99.90;;;;;;4973218;28;20189;-76
2022/03/15 01:19:32;;;;;;;3.17;2.00;;;2.20;99.90;;;;;;4972922;28;20603;-76
2022/03/15 01:21:59;;;;;;;2.40;1.77;;;2.10;99.90;;;;;;4972822;28;20618;-76
2022/03/15 01:24:25;;;;;;;3.20;1.87;;;2.20;99.90;;;;;;4972972;28;20202;-76
2022/03/15 01:26:51;;;;;;;2.33;1.97;;;2.10;99.90;;;;;;4973208;28;20670;-76
2022/03/15 01:29:18;;;;;;;3.57;2.00;;;2.10;99.90;;;;;;4972928;28;20611;-76
2022/03/15 01:31:44;;;;;;;2.03;1.70;;;2.00;99.90;;;;;;4972465;28;20215;-76
2022/03/15 01:34:10;;;;;;;2.27;1.73;;;2.00;99.90;;;;;;4989159;28;20170;-76
2022/03/15 01:36:35;;;;;;;1.97;1.60;;;2.00;99.90;;;;;;4972933;28;20174;-76
2022/03/15 01:39:04;;;;;;;2.73;1.70;;;2.10;99.90;;;;;;4988921;28;20173;-76
2022/03/15 01:41:30;;;;;;;3.47;1.70;;;2.20;99.90;;;;;;4972500;28;20201;-76
2022/03/15 01:43:55;;;;;;;2.03;1.70;;;2.20;99.90;;;;;;4972652;28;20273;-76
2022/03/15 01:46:21;;;;;;;1.80;1.70;;;2.20;99.90;;;;;;4972551;28;20222;-76
2022/03/15 01:48:46;;;;;;;2.40;1.83;;;2.10;99.90;;;;;;4972509;28;20207;-76
2022/03/15 01:51:15;;;;;;;2.63;2.10;;;2.10;99.90;;;;;;4972508;28;20201;-76
2022/03/15 01:53:41;;;;;;;1.80;1.63;;;2.00;99.90;;;;;;4972109;28;20177;-76
2022/03/15 01:56:07;;;;;;;2.07;1.87;;;2.00;99.90;;;;;;4988749;28;20257;-76
2022/03/15 01:58:33;;;;;;;2.80;1.77;;;2.10;99.90;;;;;;4972556;28;20187;-76
2022/03/15 02:00:59;;;;;;;2.33;1.70;;;2.00;99.90;;;;;;4972246;28;20247;-76
2022/03/15 02:03:24;;;;;;;2.90;2.17;;;2.10;99.90;;;;;;4972220;28;20182;-76
2022/03/15 02:05:50;;;;;;;2.13;1.93;;;2.10;99.90;;;;;;4972373;28;20275;-76
2022/03/15 02:08:16;;;;;;;2.43;2.00;;;2.10;99.90;;;;;;4972132;28;20753;-76
2022/03/15 02:10:43;;;;;;;2.77;2.10;;;2.10;99.90;;;;;;4972270;28;20685;-76
2022/03/15 02:13:10;;;;;;;2.33;2.07;;;2.10;99.90;;;;;;4971930;28;20177;-76
2022/03/15 02:15:37;;;;;;;2.50;2.00;;;1.90;99.90;;;;;;4972058;28;20601;-76
2022/03/15 02:18:03;;;;;;;3.80;2.20;;;2.00;99.90;;;;;;4972439;28;20226;-76
2022/03/15 02:20:30;;;;;;;2.33;2.13;;;1.90;99.90;;;;;;4972678;28;20224;-76
2022/03/15 02:22:56;;;;;;;3.07;2.30;;;1.90;99.90;;;;;;4971912;28;20657;-76
2022/03/15 02:25:23;;;;;;;3.03;2.30;;;2.00;99.90;;;;;;4972046;28;20564;-76
2022/03/15 02:27:48;;;;;;;3.67;2.10;;;2.00;99.90;;;;;;4971823;28;20561;-76
2022/03/15 02:30:14;;;;;;;2.70;2.37;;;1.90;99.90;;;;;;4972068;28;20196;-76
2022/03/15 02:32:40;;;;;;;3.37;2.40;;;1.90;99.90;;;;;;4972187;28;20178;-75
2022/03/15 02:35:06;;;;;;;3.10;2.23;;;1.80;99.90;;;;;;4971907;28;20556;-75
2022/03/15 02:37:32;;;;;;;2.83;2.30;;;1.80;99.90;;;;;;4971901;28;20198;-75
2022/03/15 02:39:58;;;;;;;2.87;2.57;;;1.80;99.90;;;;;;4971890;28;20180;-75
2022/03/15 02:42:24;;;;;;;6.37;3.10;;;1.70;99.90;;;;;;4971696;28;20204;-75
2022/03/15 02:44:49;;;;;;;4.40;3.27;;;1.70;99.90;;;;;;4971805;28;20319;-75
2022/03/15 02:47:15;;;;;;;3.77;2.43;;;1.60;99.90;;;;;;4972092;28;20177;-75
2022/03/15 02:49:41;;;;;;;2.50;2.20;;;1.60;99.90;;;;;;4971866;28;20204;-75
2022/03/15 02:52:07;;;;;;;2.20;2.00;;;1.70;99.90;;;;;;4971772;28;20349;-75
2022/03/15 02:54:33;;;;;;;4.83;3.73;;;1.70;99.90;;;;;;4971876;28;20660;-75
2022/03/15 02:56:58;;;;;;;4.20;3.60;;;1.60;99.90;;;;;;4971708;28;20210;-75
2022/03/15 02:59:25;;;;;;;4.30;3.20;;;1.60;99.90;;;;;;4972078;28;20193;-75
2022/03/15 03:01:50;;;;;;;3.70;3.30;;;1.60;99.90;;;;;;4971508;28;20209;-75
2022/03/15 03:04:16;;;;;;;4.20;3.60;;;1.60;99.90;;;;;;4972109;28;20182;-75
2022/03/15 03:06:43;;;;;;;4.00;3.60;;;1.60;99.90;;;;;;4973147;28;20183;-75
2022/03/15 03:09:11;;;;;;;5.00;3.60;;;1.70;99.90;;;;;;4975403;28;20204;-75
2022/03/15 03:11:38;;;;;;;4.67;3.60;;;1.60;99.90;;;;;;4974903;28;20214;-75
2022/03/15 03:14:04;;;;;;;4.20;3.53;;;1.70;99.90;;;;;;4975238;28;20267;-75
2022/03/15 03:16:30;;;;;;;4.57;3.60;;;1.80;99.90;;;;;;4975358;28;20183;-75
2022/03/15 03:18:59;;;;;;;4.77;3.77;;;1.80;99.90;;;;;;4975318;28;20211;-75
2022/03/15 03:21:27;;;;;;;3.70;3.30;;;1.90;99.90;;;;;;4974892;28;20753;-75
2022/03/15 03:23:53;;;;;;;5.23;3.37;;;1.80;99.90;;;;;;4975128;28;20201;-75
2022/03/15 03:26:24;;;;;;;4.30;3.70;;;1.70;99.90;;;;;;4975075;28;20191;-75
2022/03/15 03:28:53;;;;;;;4.50;3.43;;;1.70;99.90;;;;;;4975206;28;20219;-75
2022/03/15 03:31:18;;;;;;;4.17;3.60;;;1.80;99.90;;;;;;4974681;28;20626;-75
2022/03/15 03:33:44;;;;;;;3.40;2.70;;;1.80;99.90;;;;;;4975158;28;20217;-75
2022/03/15 03:36:10;;;;;;;2.87;2.57;;;1.90;99.90;;;;;;4974987;28;20178;-75
2022/03/15 03:38:37;;;;;;;3.37;2.50;;;1.90;99.90;;;;;;4974752;28;20184;-75
2022/03/15 03:41:03;;;;;;;2.87;2.20;;;1.80;99.90;;;;;;4974933;28;20210;-75
2022/03/15 03:43:29;;;;;;;2.83;2.30;;;1.70;99.90;;;;;;4974889;28;20180;-75
2022/03/15 03:45:56;;;;;;;2.87;2.30;;;1.70;99.90;;;;;;4974632;28;20186;-75
2022/03/15 03:48:23;;;;;;;3.73;2.70;;;1.80;99.90;;;;;;4974853;28;20263;-75
2022/03/15 03:50:50;;;;;;;3.77;2.80;;;1.80;99.90;;;;;;4974853;28;20205;-75
2022/03/15 03:53:17;;;;;;;2.93;2.50;;;1.80;99.90;;;;;;4974578;28;20177;-75
2022/03/15 03:55:44;;;;;;;3.20;2.10;;;1.70;99.90;;;;;;4974599;28;20272;-75
2022/03/15 03:58:09;;;;;;;3.23;2.00;;;1.70;99.90;;;;;;4974718;28;20192;-75
2022/03/15 04:00:36;;;;;;;2.90;2.20;;;1.80;99.90;;;;;;4974634;28;20196;-75
2022/03/15 04:03:02;;;;;;;2.60;2.07;;;1.90;99.90;;;;;;4974551;28;20190;-75
2022/03/15 04:05:33;;;;;;;4.07;2.43;;;1.70;99.90;;;;;;4974453;28;20188;-75
2022/03/15 04:07:59;;;;;;;2.30;2.10;;;1.70;99.90;;;;;;4974250;28;20243;-75
2022/03/15 04:10:27;;;;;;;2.63;2.00;;;1.80;99.90;;;;;;4974331;28;20204;-75
2022/03/15 04:12:55;;;;;;;3.13;2.10;;;1.80;99.90;;;;;;4974209;28;20181;-75
2022/03/15 04:15:21;;;;;;;2.27;2.00;;;1.80;99.90;;;;;;4974315;28;20184;-75
2022/03/15 04:17:48;;;;;;;2.73;2.10;;;1.80;99.90;;;;;;4973733;28;20232;-75
2022/03/15 04:20:13;;;;;;;2.30;1.80;;;1.80;99.90;;;;;;4974053;28;20172;-75
2022/03/15 04:22:39;;;;;;;3.50;2.10;;;1.90;99.90;;;;;;4973769;28;20731;-75
2022/03/15 04:25:06;;;;;;;2.80;2.20;;;1.90;99.90;;;;;;4973983;28;20177;-75
2022/03/15 04:27:32;;;;;;;2.00;1.80;;;2.00;99.90;;;;;;4974062;28;20182;-75
2022/03/15 04:29:58;;;;;;;3.17;2.17;;;2.00;99.90;;;;;;4974027;28;20189;-75
2022/03/15 04:32:24;;;;;;;2.70;2.20;;;1.90;99.90;;;;;;4973904;28;20705;-75
2022/03/15 04:34:50;;;;;;;4.43;2.23;;;1.80;99.90;;;;;;4973729;28;20204;-75
2022/03/15 04:37:16;;;;;;;2.23;2.03;;;1.80;99.90;;;;;;4973916;28;20215;-75
2022/03/15 04:39:41;;;;;;;3.67;2.43;;;1.60;99.90;;;;;;4973953;28;20204;-75
2022/03/15 04:42:07;;;;;;;3.53;2.07;;;1.60;99.90;;;;;;4973616;28;20884;-75
2022/03/15 04:44:33;;;;;;;2.57;2.00;;;1.70;99.90;;;;;;4973652;28;20554;-75
2022/03/15 04:46:58;;;;;;;3.20;1.87;;;1.70;99.90;;;;;;4973662;28;20216;-75
2022/03/15 04:49:24;;;;;;;2.73;1.80;;;1.70;99.90;;;;;;4973489;28;20240;-75
2022/03/15 04:51:50;;;;;;;2.73;2.03;;;1.60;99.90;;;;;;4973248;28;20236;-75
2022/03/15 04:54:16;;;;;;;2.50;2.10;;;1.60;99.90;;;;;;4973617;28;20181;-75
2022/03/15 04:56:42;;;;;;;3.03;2.30;;;1.50;99.90;;;;;;4973585;28;20185;-75
2022/03/15 04:59:08;;;;;;;2.90;1.93;;;1.50;99.90;;;;;;4973552;28;20180;-75
2022/03/15 05:01:34;;;;;;;2.27;1.70;;;1.50;99.90;;;;;;4973336;28;20200;-75
2022/03/15 05:04:00;;;;;;;2.73;2.00;;;1.50;99.90;;;;;;4973465;28;20415;-75
2022/03/15 05:06:26;;;;;;;3.47;2.07;;;1.50;99.90;;;;;;4973400;28;20177;-75
2022/03/15 05:08:51;;;;;;;2.93;1.90;;;1.60;99.90;;;;;;4973222;28;20310;-75
2022/03/15 05:11:19;;;;;;;2.43;1.80;;;1.70;99.90;;;;;;4973069;28;20218;-75
2022/03/15 05:13:47;;;;;;;2.80;2.20;;;1.80;99.90;;;;;;4973474;28;20698;-75
2022/03/15 05:16:20;;;;;;;2.07;1.60;;;1.70;99.90;;;;;;4973286;28;20184;-75
2022/03/15 05:18:49;;;;;;;2.00;1.80;;;1.70;99.90;;;;;;4972975;28;20185;-75
2022/03/15 05:21:17;;;;;;;3.03;1.83;;;1.60;99.90;;;;;;4973058;28;20243;-75
2022/03/15 05:23:44;;;;;;;4.33;2.57;;;1.70;99.90;;;;;;4972967;28;20196;-75
2022/03/15 05:26:11;;;;;;;3.30;2.47;;;1.70;99.90;;;;;;4972861;28;20187;-75
2022/03/15 05:28:37;;;;;;;3.00;2.70;;;1.70;99.90;;;;;;4972372;28;20204;-75
2022/03/15 05:31:03;;;;;;;2.50;2.10;;;1.80;99.90;;;;;;4972513;28;20198;-75
2022/03/15 05:33:28;;;;;;;2.60;2.00;;;1.70;99.90;;;;;;4972447;28;20184;-75
2022/03/15 05:35:54;;;;;;;2.77;2.27;;;1.70;99.90;;;;;;4973111;28;20179;-76
2022/03/15 05:38:21;;;;;;;2.70;2.30;;;1.90;99.90;;;;;;4972531;28;20176;-76
2022/03/15 05:40:46;;;;;;;2.50;2.30;;;1.90;99.90;;;;;;4972866;28;20201;-76
2022/03/15 05:43:13;;;;;;;3.23;2.67;;;1.90;99.90;;;;;;4972508;28;20679;-76
2022/03/15 05:45:38;;;;;;;4.27;2.53;;;1.80;99.90;;;;;;4972516;28;20185;-75
2022/03/15 05:48:04;;;;;;;2.90;2.47;;;1.80;99.90;;;;;;4972340;28;20267;-75
2022/03/15 05:50:30;;;;;;;3.93;2.80;;;1.70;99.90;;;;;;4972784;28;20189;-76
2022/03/15 05:52:56;;;;;;;3.47;3.00;;;1.70;99.90;;;;;;4972548;28;20181;-76
2022/03/15 05:55:23;;;;;;;4.93;3.20;;;1.70;99.90;;;;;;4972946;28;20246;-76
2022/03/15 05:57:48;;;;;;;3.80;2.80;;;1.70;99.90;;;;;;4972443;28;20187;-76
2022/03/15 06:00:15;;;;;;;3.60;2.67;;;1.70;99.90;;;;;;4972582;28;20176;-76
2022/03/15 06:02:41;;;;;;;3.47;2.53;;;1.70;99.90;;;;;;4972062;28;20639;-76
2022/03/15 06:05:08;;;;;;;2.83;2.37;;;1.70;99.90;;;;;;4972497;28;20268;-76
2022/03/15 06:07:34;;;;;;;3.30;2.50;;;1.70;99.90;;;;;;4972335;28;20267;-76
2022/03/15 06:09:59;;;;;;;4.83;2.70;;;1.70;99.90;;;;;;4972246;28;20268;-76
2022/03/15 06:12:25;;;;;;;3.20;2.90;;;1.70;99.90;;;;;;4972056;28;20219;-76
2022/03/15 06:14:52;;;;;;;3.67;3.10;;;1.80;99.90;;;;;;4972301;28;20529;-76
2022/03/15 06:17:18;;;;;;;4.90;4.40;;;1.80;99.90;;;;;;4972158;28;20184;-77
2022/03/15 06:19:45;;;;;;;3.27;2.67;;;2.00;99.90;;;;;;4972136;28;20184;-77
2022/03/15 06:22:10;;;;;;;3.73;2.80;;;1.90;99.90;;;;;;4971913;28;20207;-77
2022/03/15 06:24:37;;;;;;;3.30;3.00;;;1.90;99.90;;;;;;4972375;28;20176;-77
2022/03/15 06:27:03;;;;;;;3.53;3.00;;;2.00;99.90;;;;;;4971536;28;20184;-77
2022/03/15 06:29:29;;;;;;;4.33;2.90;;;2.00;99.90;;;;;;4972069;28;20215;-76
2022/03/15 06:31:55;;;;;;;4.43;2.97;;;2.00;99.90;;;;;;4972007;28;20192;-76
2022/03/15 06:34:21;;;;;;;4.87;3.87;;;2.10;99.90;;;;;;4972267;28;20711;-76
2022/03/15 06:36:47;;;;;;;6.10;3.80;;;2.30;99.90;;;;;;4972203;28;20178;-76
2022/03/15 06:39:13;;;;;;;5.20;4.00;;;2.40;99.90;;;;;;4971927;28;20214;-76
2022/03/15 06:41:39;;;;;;;6.27;4.33;;;2.90;99.90;;;;;;4974623;28;20258;-76
2022/03/15 06:44:08;;;;;;;5.53;3.83;;;2.80;99.90;;;;;;4975910;28;20185;-77
2022/03/15 06:46:34;;;;;;;5.83;4.20;;;3.00;99.90;;;;;;4975816;28;20207;-75
2022/03/15 06:49:00;;;;;;;6.47;4.53;;;3.10;99.90;;;;;;4975752;28;20244;-76
2022/03/15 06:51:26;;;;;;;4.17;3.47;;;2.90;99.90;;;;;;4977737;28;20622;-80
2022/03/15 06:53:52;;;;;;;4.73;3.23;;;2.80;99.90;;;;;;5004696;28;20239;-76
2022/03/15 06:56:19;;;;;;;5.10;3.70;;;2.60;99.90;;;;;;5013026;28;20177;-77
2022/03/15 06:58:44;;;;;;;5.33;3.60;;;2.50;99.90;;;;;;4997861;28;20666;-76
2022/03/15 07:01:10;;;;;;;4.10;3.43;;;2.40;99.90;;;;;;4998522;28;20197;-77
2022/03/15 07:03:36;;;;;;;5.30;3.90;;;2.50;99.90;;;;;;4998198;28;20183;-77
2022/03/15 07:06:02;;;;;;;5.70;4.00;;;2.60;99.90;;;;;;4998633;28;20192;-77
2022/03/15 07:08:29;;;;;;;5.37;4.00;;;2.60;99.90;;;;;;5014451;28;20212;-76
2022/03/15 07:10:55;;;;;;;6.20;4.57;;;2.70;99.90;;;;;;5014452;28;20225;-78
2022/03/15 07:13:20;;;;;;;6.93;4.47;;;2.60;99.90;;;;;;5014364;28;20270;-76
2022/03/15 07:15:46;;;;;;;6.63;4.27;;;2.50;99.90;;;;;;4982097;28;20183;-76
2022/03/15 07:18:12;;;;;;;5.10;4.13;;;2.60;99.90;;;;;;4998283;28;20181;-76
2022/03/15 07:20:38;;;;;;;7.17;4.00;;;2.70;99.90;;;;;;4981929;28;20208;-76
2022/03/15 07:23:04;;;;;;;7.23;4.20;;;2.70;99.90;;;;;;4997853;28;20231;-76
2022/03/15 07:25:30;;;;;;;6.93;4.70;;;2.80;99.90;;;;;;5014995;28;20176;-76
2022/03/15 07:27:57;;;;;;;10.33;6.00;;;2.80;99.90;;;;;;4998135;28;20214;-76
2022/03/15 07:30:23;;;;;;;7.57;5.13;;;2.80;99.90;;;;;;4998063;28;20176;-76
2022/03/15 07:32:49;;;;;;;26.43;15.70;;;2.70;99.90;;;;;;5013891;28;20249;-76
2022/03/15 07:35:14;;;;;;;13.53;8.27;;;2.80;99.90;;;;;;4997788;28;20563;-76
2022/03/15 07:37:58;;;;;;;15.43;8.90;;;2.70;99.90;;;;;;5014073;28;20182;-76
2022/03/15 07:40:26;;;;;;;11.07;6.87;;;2.80;99.90;;;;;;4998161;28;20197;-76
2022/03/15 07:42:52;;;;;;;9.93;6.77;;;2.90;99.90;;;;;;4997581;28;20182;-76
2022/03/15 07:45:18;;;;;;;9.33;5.97;;;3.00;99.90;;;;;;5013799;28;20691;-76
2022/03/15 07:47:44;;;;;;;8.50;5.90;;;3.00;99.90;;;;;;4997397;28;20274;-76
2022/03/15 07:50:10;;;;;;;6.63;5.03;;;3.00;99.90;;;;;;4997405;28;20216;-76
2022/03/15 07:52:36;;;;;;;8.10;5.40;;;3.10;99.90;;;;;;4996364;28;20182;-76
2022/03/15 07:55:02;;;;;;;6.77;5.20;;;3.10;99.90;;;;;;4981120;28;20177;-76
2022/03/15 07:57:28;;;;;;;8.10;5.73;;;3.10;99.90;;;;;;5013551;28;20211;-76
2022/03/15 07:59:54;;;;;;;8.50;5.93;;;3.10;99.90;;;;;;4981238;28;20234;-76
2022/03/15 08:02:20;;;;;;;8.13;5.53;;;3.10;99.90;;;;;;4980904;28;20651;-76
2022/03/15 08:04:46;;;;;;;9.23;5.90;;;3.20;99.90;;;;;;4981473;28;20235;-76
2022/03/15 08:07:12;;;;;;;8.17;6.00;;;3.20;99.90;;;;;;4981055;28;20184;-76
2022/03/15 08:09:38;;;;;;;7.00;5.80;;;3.20;99.90;;;;;;4980680;28;20208;-76
2022/03/15 08:12:05;;;;;;;9.17;5.57;;;3.30;99.90;;;;;;4981148;28;20216;-76
2022/03/15 08:14:30;;;;;;;8.57;5.80;;;3.50;99.90;;;;;;4997005;28;20181;-76
2022/03/15 08:16:56;;;;;;;6.97;5.90;;;3.60;99.90;;;;;;4997079;28;20185;-76
2022/03/15 08:19:22;;;;;;;10.03;5.53;;;3.70;99.90;;;;;;4997419;28;20649;-76
2022/03/15 08:21:47;;;;;;;6.67;5.60;;;3.70;99.90;;;;;;4981464;28;20242;-77
2022/03/15 08:24:14;;;;;;;7.97;5.93;;;3.80;99.90;;;;;;4981224;28;20633;-77
2022/03/15 08:26:40;;;;;;;7.27;5.40;;;3.90;99.90;;;;;;4997386;28;20185;-77
2022/03/15 08:29:06;;;;;;;7.97;5.73;;;3.90;99.90;;;;;;5013229;28;20206;-78
2022/03/15 08:31:31;;;;;;;6.63;5.37;;;4.10;99.90;;;;;;5013590;28;20224;-78
2022/03/15 08:33:57;;;;;;;9.87;5.80;;;4.10;99.90;;;;;;4981565;28;20183;-78
2022/03/15 08:36:23;;;;;;;9.37;5.70;;;4.10;99.90;;;;;;4997038;28;20669;-78
2022/03/15 08:38:50;;;;;;;6.73;5.30;;;4.30;99.90;;;;;;5012861;28;20181;-77
2022/03/15 08:41:16;;;;;;;7.03;5.13;;;4.40;99.90;;;;;;5013051;28;20206;-77
2022/03/15 08:43:42;;;;;;;7.13;4.93;;;4.50;99.90;;;;;;5013035;28;20277;-77
2022/03/15 08:46:08;;;;;;;8.13;5.50;;;4.60;99.90;;;;;;4996700;28;20217;-77
2022/03/15 08:48:34;;;;;;;6.20;4.77;;;4.70;99.90;;;;;;4980071;28;20216;-76
2022/03/15 08:51:00;;;;;;;6.43;4.60;;;4.80;99.90;;;;;;4996441;28;20198;-76
2022/03/15 08:53:31;;;;;;;5.53;4.60;;;4.90;99.90;;;;;;4980317;28;20179;-77
2022/03/15 08:55:56;;;;;;;5.80;4.90;;;4.90;99.90;;;;;;4996892;28;20186;-77
2022/03/15 08:58:22;;;;;;;6.37;4.67;;;4.90;99.90;;;;;;5012654;28;20175;-78
2022/03/15 09:00:49;;;;;;;6.13;4.97;;;5.00;99.90;;;;;;4979883;28;20209;-77
2022/03/15 09:03:14;;;;;;;6.83;5.07;;;5.00;99.90;;;;;;4980153;28;20178;-77
2022/03/15 09:05:40;;;;;;;8.30;4.77;;;5.00;99.90;;;;;;4996066;28;20186;-77
2022/03/15 09:08:06;;;;;;;5.70;4.70;;;5.10;99.90;;;;;;4995748;28;20237;-77
2022/03/15 09:10:34;;;;;;;6.53;4.83;;;5.10;99.90;;;;;;4995986;28;20195;-76
2022/03/15 09:13:00;;;;;;;7.00;5.37;;;5.20;99.90;;;;;;5012952;28;20182;-77
2022/03/15 09:15:26;;;;;;;7.00;5.03;;;5.20;99.90;;;;;;5012814;28;20171;-77
2022/03/15 09:17:52;;;;;;;6.20;4.93;;;5.20;99.90;;;;;;4996255;28;20178;-76
2022/03/15 09:20:18;;;;;;;7.43;5.20;;;5.30;99.90;;;;;;4996762;28;20245;-77
2022/03/15 09:22:43;;;;;;;5.30;4.50;;;5.40;99.90;;;;;;4979732;28;20596;-76
2022/03/15 09:25:09;;;;;;;7.43;4.73;;;5.50;99.90;;;;;;4996705;28;20190;-78
2022/03/15 09:27:35;;;;;;;6.70;4.80;;;5.50;99.90;;;;;;4980589;28;20273;-77
2022/03/15 09:30:01;;;;;;;5.40;4.43;;;5.60;99.90;;;;;;4970680;28;20202;-77
2022/03/15 09:32:27;;;;;;;5.77;4.20;;;5.60;99.90;;;;;;4988735;28;20673;-77
2022/03/15 09:34:54;;;;;;;7.37;4.40;;;5.70;99.90;;;;;;4996530;28;20615;-77
2022/03/15 09:37:20;;;;;;;6.37;4.57;;;5.80;99.90;;;;;;4984087;28;20194;-78
2022/03/15 09:39:46;;;;;;;6.63;4.70;;;5.90;99.90;;;;;;4985828;28;20175;-78
2022/03/15 09:42:12;;;;;;;6.00;4.60;;;5.90;99.90;;;;;;4996000;28;20203;-78
2022/03/15 09:44:40;;;;;;;7.10;5.10;;;6.00;99.90;;;;;;4979931;28;20184;-77
2022/03/15 09:47:07;;;;;;;6.13;5.27;;;6.00;99.90;;;;;;4996455;28;20267;-77
2022/03/15 09:49:35;;;;;;;7.13;5.30;;;6.00;99.90;;;;;;5012360;28;20199;-77
2022/03/15 09:52:01;;;;;;;6.37;5.20;;;6.00;99.90;;;;;;4995962;28;20227;-77
2022/03/15 09:54:29;;;;;;;7.77;5.67;;;6.10;99.90;;;;;;5012133;28;20234;-76
2022/03/15 09:56:55;;;;;;;7.53;5.97;;;6.10;99.90;;;;;;5012176;28;20172;-77
2022/03/15 09:59:23;;;;;;;7.30;5.90;;;6.20;99.90;;;;;;5011971;28;20673;-78
2022/03/15 10:01:53;;;;;;;6.27;5.63;;;6.20;99.90;;;;;;4995754;28;20209;-77
2022/03/15 10:04:22;;;;;;;7.30;4.80;;;6.30;99.90;;;;;;5012290;28;20177;-78
2022/03/15 10:06:48;;;;;;;8.23;5.17;;;6.30;99.90;;;;;;4995923;28;20188;-77
2022/03/15 10:09:26;;;;;;;6.17;4.50;;;6.40;99.90;;;;;;4979499;28;20204;-77
2022/03/15 10:11:52;;;;;;;5.70;4.70;;;6.40;99.90;;;;;;4995689;28;20196;-77
2022/03/15 10:14:19;;;;;;;6.90;4.80;;;6.50;99.90;;;;;;4995829;28;20179;-77
2022/03/15 10:16:45;;;;;;;6.13;4.70;;;6.40;99.90;;;;;;5011581;28;20171;-77
2022/03/15 10:19:13;;;;;;;7.10;4.53;;;6.50;99.90;;;;;;4995794;28;20192;-77
2022/03/15 10:21:41;;;;;;;5.00;4.23;;;6.50;99.90;;;;;;5011262;28;20255;-78
2022/03/15 10:24:08;;;;;;;5.97;4.20;;;6.50;99.90;;;;;;4995657;28;20176;-77
2022/03/15 10:26:38;;;;;;;5.93;4.60;;;6.50;99.90;;;;;;4995109;28;20206;-77
2022/03/15 10:29:03;;;;;;;5.77;4.27;;;6.50;99.90;;;;;;4979267;28;20286;-77
2022/03/15 10:31:29;;;;;;;5.67;5.00;;;6.60;99.90;;;;;;4978868;28;20227;-78
2022/03/15 10:34:00;;;;;;;6.07;4.73;;;6.60;99.90;;;;;;5011483;28;20173;-78
2022/03/15 10:36:36;;;;;;;6.40;5.27;;;6.60;99.90;;;;;;4995955;28;20201;-78
2022/03/15 10:39:03;;;;;;;6.07;4.87;;;6.60;99.90;;;;;;5012272;28;20205;-78
2022/03/15 10:41:29;;;;;;;8.00;4.90;;;6.70;99.90;;;;;;4995220;28;20692;-78
2022/03/15 10:43:57;;;;;;;8.77;5.03;;;6.70;99.90;;;;;;4995444;28;20181;-77
2022/03/15 10:46:24;;;;;;;9.87;5.70;;;6.80;99.90;;;;;;4979573;28;20699;-77
2022/03/15 10:49:01;;;;;;;10.57;7.57;;;6.80;99.90;;;;;;4995401;28;20212;-77
2022/03/15 10:51:27;;;;;;;7.50;5.47;;;6.80;99.90;;;;;;4995492;28;20197;-78
2022/03/15 10:54:01;;;;;;;8.13;6.23;;;6.90;99.90;;;;;;5011912;28;20177;-78
2022/03/15 10:56:26;;;;;;;7.93;5.60;;;6.90;99.90;;;;;;5011752;28;20169;-77
2022/03/15 10:59:02;;;;;;;8.43;5.90;;;7.00;99.90;;;;;;4979167;28;20182;-78
2022/03/15 11:01:35;;;;;;;6.20;5.00;;;7.00;99.90;;;;;;4994915;28;20201;-79
2022/03/15 11:04:03;;;;;;;6.40;4.90;;;7.00;99.90;;;;;;4996283;28;20345;-78
2022/03/15 11:06:37;;;;;;;6.00;5.03;;;7.10;99.90;;;;;;4995005;28;20273;-77
2022/03/15 11:09:15;;;;;;;7.17;5.17;;;7.10;99.90;;;;;;4995663;28;20282;-77
2022/03/15 11:11:42;;;;;;;7.30;5.60;;;7.10;99.90;;;;;;4995033;28;20202;-77
2022/03/15 11:14:09;;;;;;;6.70;5.23;;;7.10;99.90;;;;;;4979023;28;20595;-78
2022/03/15 11:16:37;;;;;;;7.60;5.43;;;7.00;99.90;;;;;;4995312;28;20179;-77
2022/03/15 11:19:05;;;;;;;7.97;5.00;;;7.00;99.90;;;;;;5011537;28;20178;-78
2022/03/15 11:21:34;;;;;;;7.90;5.07;;;7.00;99.90;;;;;;4978708;28;20206;-77
2022/03/15 11:24:02;;;;;;;6.50;4.53;;;7.20;99.90;;;;;;4994946;28;20544;-77
2022/03/15 11:26:33;;;;;;;6.13;4.27;;;7.40;99.90;;;;;;4995007;28;20178;-76
2022/03/15 11:29:02;;;;;;;5.77;4.40;;;7.90;99.90;;;;;;5014351;28;20276;-77
2022/03/15 11:31:29;;;;;;;6.60;4.33;;;8.30;99.90;;;;;;5014419;28;20191;-76
2022/03/15 11:33:57;;;;;;;5.00;4.10;;;8.80;99.90;;;;;;5014713;28;20206;-77
2022/03/15 11:36:25;;;;;;;9.47;5.53;;;9.10;99.90;;;;;;5014823;28;20202;-76
2022/03/15 11:38:52;;;;;;;7.13;4.60;;;9.20;99.90;;;;;;4982448;28;20222;-77
2022/03/15 11:41:20;;;;;;;5.40;4.60;;;9.20;99.90;;;;;;5014429;28;20196;-77
2022/03/15 11:44:08;;;;;;;6.87;4.80;;;9.30;99.90;;;;;;4998721;28;20219;-77
2022/03/15 11:46:43;;;;;;;8.53;5.77;;;9.40;99.90;;;;;;5014665;28;20222;-77
2022/03/15 11:49:34;;;;;;;8.30;6.00;;;9.20;99.90;;;;;;5014477;28;20201;-77
2022/03/15 11:52:18;;;;;;;8.30;5.20;;;8.80;99.90;;;;;;5014220;28;20284;-77
2022/03/15 11:55:16;;;;;;;8.70;4.30;;;9.90;99.90;;;;;;5013824;28;20173;-77
2022/03/15 11:57:45;;;;;;;6.57;4.23;;;11.60;99.90;;;;;;5013715;28;20245;-77
2022/03/15 12:00:11;;;;;;;5.73;4.57;;;12.00;99.90;;;;;;4997332;28;20772;-77
2022/03/15 12:02:40;;;;;;;6.90;4.33;;;12.60;99.90;;;;;;4997208;28;20191;-75
2022/03/15 12:05:48;;;;;;;5.57;4.20;;;12.30;99.90;;;;;;5013468;28;20232;-77
2022/03/15 12:08:23;;;;;;;6.03;4.70;;;12.70;99.90;;;;;;4997403;28;20216;-77
2022/03/15 12:11:05;;;;;;;5.00;4.37;;;12.60;99.90;;;;;;4997183;28;20192;-77
2022/03/15 12:13:47;;;;;;;18.17;10.07;;;12.30;99.90;;;;;;4980788;28;20550;-77
2022/03/15 12:16:21;;;;;;;9.07;6.30;;;12.40;99.90;;;;;;4982069;28;20177;-77
2022/03/15 12:19:39;;;;;;;7.90;6.37;;;12.20;99.90;;;;;;4998042;28;20182;-77
2022/03/15 12:22:06;;;;;;;13.60;9.10;;;11.50;99.90;;;;;;5013023;28;20210;-80
2022/03/15 12:24:43;;;;;;;11.47;7.53;;;10.20;99.90;;;;;;5013850;28;20253;-78
2022/03/15 12:27:16;;;;;;;7.83;6.97;;;9.50;99.90;;;;;;5013193;28;20183;-78
2022/03/15 12:29:52;;;;;;;24.00;13.53;;;9.00;99.90;;;;;;5013407;28;20206;-78
2022/03/15 12:32:19;;;;;;;11.83;7.90;;;8.40;99.90;;;;;;5012777;28;20177;-77
2022/03/15 12:34:49;;;;;;;9.47;6.83;;;8.20;99.90;;;;;;5013273;28;20173;-78
2022/03/15 12:37:15;;;;;;;9.73;7.80;;;8.00;99.90;;;;;;5013134;28;20175;-78
2022/03/15 12:39:52;;;;;;;14.03;9.37;;;7.70;99.90;;;;;;5012610;28;20226;-78
2022/03/15 12:42:21;;;;;;;9.10;7.13;;;7.70;99.90;;;;;;4997903;28;20194;-78
2022/03/15 12:44:49;;;;;;;9.13;7.90;;;7.60;99.90;;;;;;4996908;28;20733;-78
2022/03/15 12:47:19;;;;;;;8.67;7.07;;;7.50;99.90;;;;;;4996530;28;20183;-78
2022/03/15 12:50:07;;;;;;;16.23;11.63;;;7.50;99.90;;;;;;4980560;28;20210;-78
2022/03/15 12:52:37;;;;;;;11.20;7.53;;;7.50;99.90;;;;;;4996047;28;20669;-78
2022/03/15 12:55:04;;;;;;;9.87;7.40;;;7.40;99.90;;;;;;5012469;28;20193;-78
2022/03/15 12:57:30;;;;;;;11.23;8.37;;;7.50;99.90;;;;;;5012760;28;20178;-78